Time;durP1;ratioP1;P1;durP2;ratioP2;P2;SDS_P1;SDS_P2;PMS_P1;PMS_P2;Temp;Humidity;BMP_temperature;BMP_pressure;BME280_temperature;BME280_humidity;BME280_pressure;Samples;Min_cycle;Max_cycle;Signal;HPM_P1;HPM_P2
2021/12/26 00:01:42;;;;;;;7.43;4.23;;;2.90;99.90;;;;;;4984430;28;20692;-72
2021/12/26 00:04:13;;;;;;;6.33;4.40;;;2.90;99.90;;;;;;4983877;28;20217;-70
2021/12/26 00:06:42;;;;;;;7.97;4.40;;;2.90;99.90;;;;;;4978701;28;20231;-69
2021/12/26 00:09:09;;;;;;;7.40;4.53;;;2.80;99.90;;;;;;4986808;28;20591;-69
2021/12/26 00:11:36;;;;;;;7.67;4.17;;;2.80;99.90;;;;;;4978327;28;20863;-71
2021/12/26 00:14:05;;;;;;;8.20;4.40;;;2.90;99.90;;;;;;4983325;28;20691;-69
2021/12/26 00:16:33;;;;;;;6.93;4.23;;;2.80;99.90;;;;;;4986014;28;20212;-73
2021/12/26 00:18:59;;;;;;;7.77;4.33;;;2.70;99.90;;;;;;4985458;28;20211;-69
2021/12/26 00:21:26;;;;;;;5.97;4.00;;;2.80;99.90;;;;;;4977011;28;20205;-70
2021/12/26 00:23:55;;;;;;;6.27;4.30;;;2.80;99.90;;;;;;4988256;28;20719;-69
2021/12/26 00:26:25;;;;;;;8.03;4.30;;;2.70;99.90;;;;;;4986526;28;20671;-70
2021/12/26 00:28:53;;;;;;;7.30;4.50;;;2.70;99.90;;;;;;4982574;28;20286;-69
2021/12/26 00:31:20;;;;;;;6.43;3.87;;;2.70;99.90;;;;;;4983796;28;20196;-69
2021/12/26 00:33:46;;;;;;;6.97;4.13;;;2.80;99.90;;;;;;4985566;28;20284;-69
2021/12/26 00:36:13;;;;;;;8.20;4.50;;;2.80;99.90;;;;;;4987211;28;20219;-69
2021/12/26 00:38:40;;;;;;;7.37;4.23;;;2.80;99.90;;;;;;4978330;28;20219;-69
2021/12/26 00:41:07;;;;;;;7.17;4.50;;;2.80;99.90;;;;;;4984215;28;20683;-69
2021/12/26 00:43:34;;;;;;;6.53;3.97;;;2.90;99.90;;;;;;4984244;28;20227;-70
2021/12/26 00:46:01;;;;;;;7.03;4.47;;;2.90;99.90;;;;;;4987104;28;20192;-69
2021/12/26 00:48:28;;;;;;;10.63;4.80;;;2.80;99.90;;;;;;4982415;28;20235;-70
2021/12/26 00:50:55;;;;;;;7.73;3.97;;;2.80;99.90;;;;;;4978592;28;21561;-70
2021/12/26 00:53:22;;;;;;;6.53;3.63;;;2.80;99.90;;;;;;4985026;28;20217;-68
2021/12/26 00:55:50;;;;;;;8.47;4.27;;;2.80;99.90;;;;;;4986977;28;20440;-69
2021/12/26 00:58:17;;;;;;;7.07;4.60;;;2.80;99.90;;;;;;4984225;28;20205;-69
2021/12/26 01:00:47;;;;;;;6.43;4.13;;;2.80;99.90;;;;;;4980764;28;20197;-69
2021/12/26 01:03:15;;;;;;;6.37;3.90;;;2.80;99.90;;;;;;4985127;28;20219;-69
2021/12/26 01:05:46;;;;;;;6.73;4.03;;;2.70;99.90;;;;;;4986818;28;20291;-69
2021/12/26 01:08:16;;;;;;;9.20;4.43;;;2.70;99.90;;;;;;4986046;28;20259;-69
2021/12/26 01:10:44;;;;;;;7.63;4.37;;;2.80;99.90;;;;;;4986836;28;20224;-68
2021/12/26 01:13:35;;;;;;;6.83;4.60;;;2.70;99.90;;;;;;4986922;28;20201;-68
2021/12/26 01:16:07;;;;;;;6.33;4.13;;;2.80;99.90;;;;;;4982720;28;20589;-70
2021/12/26 01:18:37;;;;;;;7.23;4.53;;;2.80;99.90;;;;;;4978243;28;20672;-68
2021/12/26 01:21:27;;;;;;;6.50;4.30;;;2.80;99.90;;;;;;4984388;28;20193;-69
2021/12/26 01:23:59;;;;;;;10.27;4.63;;;2.80;99.90;;;;;;4981127;28;20227;-72
2021/12/26 01:26:28;;;;;;;7.30;4.20;;;2.80;99.90;;;;;;4980478;28;20208;-71
2021/12/26 01:28:55;;;;;;;9.33;4.90;;;2.80;99.90;;;;;;4984346;28;20224;-68
2021/12/26 01:31:23;;;;;;;9.00;4.70;;;2.90;99.90;;;;;;4987992;28;20193;-69
2021/12/26 01:33:53;;;;;;;8.70;4.47;;;3.00;99.90;;;;;;4985220;28;20299;-69
2021/12/26 01:36:20;;;;;;;7.10;4.30;;;2.90;99.90;;;;;;4989204;28;20582;-70
2021/12/26 01:38:47;;;;;;;8.27;5.17;;;3.00;99.90;;;;;;4990506;28;20200;-68
2021/12/26 01:41:17;;;;;;;8.07;4.53;;;2.90;99.90;;;;;;4991460;28;20204;-70
2021/12/26 01:43:46;;;;;;;8.37;4.63;;;2.90;99.90;;;;;;4988698;28;20224;-70
2021/12/26 01:46:15;;;;;;;9.13;5.13;;;2.90;99.90;;;;;;4979520;28;20299;-69
2021/12/26 01:48:42;;;;;;;7.57;4.80;;;2.80;99.90;;;;;;4988818;28;20987;-69
2021/12/26 01:51:09;;;;;;;7.83;4.63;;;2.80;99.90;;;;;;4986391;28;20227;-71
2021/12/26 01:53:38;;;;;;;8.73;5.00;;;2.80;99.90;;;;;;4984608;28;20217;-69
2021/12/26 01:56:09;;;;;;;8.40;4.83;;;2.90;99.90;;;;;;4983904;28;20201;-69
2021/12/26 01:58:37;;;;;;;8.03;4.83;;;2.80;99.90;;;;;;4986693;28;20217;-69
2021/12/26 02:01:10;;;;;;;8.60;4.97;;;2.90;99.90;;;;;;4976948;28;20250;-71
2021/12/26 02:03:39;;;;;;;9.53;4.80;;;2.80;99.90;;;;;;4983354;28;20264;-69
2021/12/26 02:06:09;;;;;;;7.57;4.70;;;2.80;99.90;;;;;;4987436;28;20212;-68
2021/12/26 02:08:36;;;;;;;9.57;4.93;;;2.80;99.90;;;;;;4986265;28;20914;-71
2021/12/26 02:11:03;;;;;;;7.50;4.97;;;2.90;99.90;;;;;;4984525;28;20193;-69
2021/12/26 02:13:30;;;;;;;8.03;4.53;;;2.80;99.90;;;;;;4989232;28;20240;-72
2021/12/26 02:15:57;;;;;;;7.37;4.73;;;2.70;99.90;;;;;;4985010;28;20201;-69
2021/12/26 02:18:24;;;;;;;11.23;5.10;;;2.70;99.90;;;;;;4987782;28;20400;-69
2021/12/26 02:21:10;;;;;;;9.30;5.27;;;2.60;99.90;;;;;;4976780;28;20213;-73
2021/12/26 02:29:04;;;;;;;10.30;4.80;;;2.80;99.90;;;;;;4985369;28;20287;-70
2021/12/26 02:31:30;;;;;;;9.80;4.90;;;2.80;99.90;;;;;;4988724;28;20204;-70
2021/12/26 02:33:57;;;;;;;8.80;5.10;;;2.90;99.90;;;;;;4989136;28;20212;-69
2021/12/26 02:36:24;;;;;;;9.87;5.23;;;2.80;99.90;;;;;;4991118;28;20207;-72
2021/12/26 02:38:50;;;;;;;9.03;5.13;;;2.80;99.90;;;;;;4980764;28;20208;-69
2021/12/26 02:41:17;;;;;;;9.33;5.20;;;2.70;99.90;;;;;;4988206;28;20661;-69
2021/12/26 02:43:44;;;;;;;10.70;5.67;;;2.70;99.90;;;;;;4985324;28;20225;-72
2021/12/26 02:46:11;;;;;;;9.40;5.47;;;2.70;99.90;;;;;;4987960;28;20244;-70
2021/12/26 02:48:38;;;;;;;8.70;5.07;;;2.80;99.90;;;;;;4985080;28;20704;-69
2021/12/26 02:51:05;;;;;;;8.10;5.63;;;2.90;99.90;;;;;;4987937;28;20199;-70
2021/12/26 02:53:33;;;;;;;9.33;5.17;;;3.00;99.90;;;;;;4986166;28;20812;-69
2021/12/26 02:56:02;;;;;;;9.23;5.87;;;3.00;99.90;;;;;;4982941;28;20199;-69
2021/12/26 02:58:29;;;;;;;10.97;5.47;;;2.90;99.90;;;;;;4987027;28;20235;-71
2021/12/26 03:01:05;;;;;;;8.33;5.43;;;2.90;99.90;;;;;;4984046;28;20247;-70
2021/12/26 03:03:32;;;;;;;9.10;5.70;;;2.90;99.90;;;;;;4985480;28;20279;-69
2021/12/26 03:06:16;;;;;;;10.07;5.47;;;2.90;99.90;;;;;;4982276;28;20503;-69
2021/12/26 03:08:43;;;;;;;9.20;5.20;;;2.90;99.90;;;;;;4985687;28;20216;-69
2021/12/26 03:11:09;;;;;;;9.83;5.53;;;2.80;99.90;;;;;;4985358;28;20576;-72
2021/12/26 03:13:36;;;;;;;11.60;6.10;;;2.80;99.90;;;;;;4987924;28;20216;-71
2021/12/26 03:16:03;;;;;;;10.30;5.43;;;2.80;99.90;;;;;;4986711;28;20566;-71
2021/12/26 03:18:29;;;;;;;8.47;5.03;;;2.90;99.90;;;;;;4982487;28;20672;-69
2021/12/26 03:20:56;;;;;;;9.30;5.57;;;2.90;99.90;;;;;;4985950;28;20562;-69
2021/12/26 03:23:25;;;;;;;8.37;5.07;;;2.80;99.90;;;;;;4989831;28;20779;-69
2021/12/26 03:26:10;;;;;;;9.80;5.97;;;2.80;99.90;;;;;;4985200;28;20299;-70
2021/12/26 03:28:36;;;;;;;10.03;5.20;;;2.80;99.90;;;;;;4978377;28;20224;-69
2021/12/26 03:31:04;;;;;;;8.90;5.37;;;2.80;99.90;;;;;;4986873;28;20244;-71
2021/12/26 03:33:31;;;;;;;10.07;5.57;;;2.80;99.90;;;;;;4985246;28;20217;-69
2021/12/26 03:35:58;;;;;;;10.80;5.73;;;2.80;99.90;;;;;;4983743;28;20205;-71
2021/12/26 03:38:25;;;;;;;9.97;5.97;;;2.90;99.90;;;;;;4985699;28;20196;-69
2021/12/26 03:40:53;;;;;;;9.70;6.10;;;2.90;99.90;;;;;;4985807;28;20529;-69
2021/12/26 03:43:22;;;;;;;9.43;5.63;;;2.90;99.90;;;;;;4989332;28;20196;-71
2021/12/26 03:45:51;;;;;;;9.70;5.77;;;3.00;99.90;;;;;;4984395;28;20693;-70
2021/12/26 03:48:21;;;;;;;9.47;5.83;;;2.90;99.90;;;;;;4986021;28;20227;-69
2021/12/26 03:50:48;;;;;;;10.90;5.60;;;2.90;99.90;;;;;;4988815;28;20765;-69
2021/12/26 03:53:16;;;;;;;11.83;5.80;;;3.00;99.90;;;;;;4988616;28;20193;-70
2021/12/26 03:55:43;;;;;;;11.40;5.87;;;3.00;99.90;;;;;;4987860;28;20699;-70
2021/12/26 03:58:09;;;;;;;10.57;5.80;;;3.00;99.90;;;;;;4983537;28;20204;-69
2021/12/26 04:00:37;;;;;;;10.10;5.40;;;2.90;99.90;;;;;;4990150;28;20470;-69
2021/12/26 04:03:04;;;;;;;8.83;5.50;;;2.90;99.90;;;;;;4988787;28;20588;-70
2021/12/26 04:05:31;;;;;;;8.33;5.70;;;2.90;99.90;;;;;;4986986;28;20204;-70
2021/12/26 04:07:57;;;;;;;9.50;5.63;;;3.00;99.90;;;;;;4988619;28;20251;-71
2021/12/26 04:10:24;;;;;;;11.70;5.87;;;3.00;99.90;;;;;;4983498;28;20228;-70
2021/12/26 04:12:54;;;;;;;12.93;6.37;;;3.00;99.90;;;;;;4977447;28;20201;-71
2021/12/26 04:15:24;;;;;;;10.50;5.50;;;3.00;99.90;;;;;;4986688;28;20220;-70
2021/12/26 04:17:54;;;;;;;9.40;5.73;;;2.90;99.90;;;;;;4986616;28;20197;-70
2021/12/26 04:20:22;;;;;;;9.43;6.30;;;2.90;99.90;;;;;;4986887;28;20788;-71
2021/12/26 04:22:50;;;;;;;13.00;6.27;;;2.90;99.90;;;;;;4982850;28;20749;-69
2021/12/26 04:25:19;;;;;;;10.80;6.03;;;2.90;99.90;;;;;;4987919;28;20240;-70
2021/12/26 04:27:46;;;;;;;9.97;5.63;;;3.00;99.90;;;;;;4986013;28;20216;-69
2021/12/26 04:30:14;;;;;;;11.17;5.73;;;3.00;99.90;;;;;;4987891;28;20228;-69
2021/12/26 04:32:40;;;;;;;11.50;6.30;;;3.00;99.90;;;;;;4981605;28;20203;-69
2021/12/26 04:35:08;;;;;;;10.03;6.10;;;2.90;99.90;;;;;;4987964;28;20224;-70
2021/12/26 04:37:35;;;;;;;9.20;5.13;;;2.90;99.90;;;;;;4980822;28;20208;-71
2021/12/26 04:40:09;;;;;;;9.47;5.57;;;3.00;99.90;;;;;;4983546;28;20208;-71
2021/12/26 04:42:38;;;;;;;11.63;6.13;;;2.90;99.90;;;;;;4987563;28;20207;-70
2021/12/26 04:45:08;;;;;;;13.37;6.50;;;2.90;99.90;;;;;;4986093;28;20278;-69
2021/12/26 04:47:38;;;;;;;9.87;5.67;;;2.90;99.90;;;;;;4983005;28;20215;-69
2021/12/26 04:50:11;;;;;;;10.00;5.90;;;2.90;99.90;;;;;;4988092;28;20221;-70
2021/12/26 04:52:41;;;;;;;9.87;5.83;;;2.90;99.90;;;;;;4981155;28;20200;-69
2021/12/26 04:55:08;;;;;;;10.73;6.20;;;2.80;99.90;;;;;;4984545;28;20593;-69
2021/12/26 04:57:35;;;;;;;12.73;6.87;;;2.80;99.90;;;;;;4986004;28;20192;-70
2021/12/26 05:00:08;;;;;;;10.60;6.00;;;2.80;99.90;;;;;;4981515;28;20210;-71
2021/12/26 05:02:36;;;;;;;11.10;6.40;;;2.70;99.90;;;;;;4978118;28;20254;-70
2021/12/26 05:05:04;;;;;;;13.13;7.00;;;2.70;99.90;;;;;;4999173;28;20570;-69
2021/12/26 05:07:31;;;;;;;11.13;6.00;;;2.70;99.90;;;;;;5000379;28;20204;-67
2021/12/26 05:09:58;;;;;;;12.23;6.40;;;2.70;99.90;;;;;;4988455;28;20286;-70
2021/12/26 05:12:24;;;;;;;12.90;6.40;;;2.60;99.90;;;;;;4985633;28;20719;-72
2021/12/26 05:14:52;;;;;;;10.17;6.17;;;2.60;99.90;;;;;;4990054;28;20227;-69
2021/12/26 05:17:24;;;;;;;12.93;6.87;;;2.50;99.90;;;;;;4986115;28;20193;-72
2021/12/26 05:19:51;;;;;;;11.80;6.20;;;2.40;99.90;;;;;;4998682;28;20200;-71
2021/12/26 05:22:20;;;;;;;10.40;6.57;;;2.50;99.90;;;;;;4991347;28;20193;-69
2021/12/26 05:24:48;;;;;;;12.13;7.07;;;2.50;99.90;;;;;;4999224;28;20502;-72
2021/12/26 05:27:15;;;;;;;11.57;6.80;;;2.50;99.90;;;;;;4984769;28;20213;-71
2021/12/26 05:29:42;;;;;;;12.13;6.60;;;2.50;99.90;;;;;;4986448;28;20232;-69
2021/12/26 05:32:09;;;;;;;14.70;7.17;;;2.50;99.90;;;;;;4986811;28;20684;-69
2021/12/26 05:34:35;;;;;;;11.33;6.67;;;2.50;99.90;;;;;;4988577;28;20228;-71
2021/12/26 05:37:02;;;;;;;13.20;6.60;;;2.50;99.90;;;;;;4988863;28;20203;-69
2021/12/26 05:39:29;;;;;;;11.07;5.90;;;2.60;99.90;;;;;;4987713;28;20211;-69
2021/12/26 05:41:55;;;;;;;15.07;7.10;;;2.60;99.90;;;;;;4987895;28;20247;-70
2021/12/26 05:44:22;;;;;;;13.03;6.43;;;2.50;99.90;;;;;;4985345;28;20667;-70
2021/12/26 05:46:49;;;;;;;11.17;6.60;;;2.50;99.90;;;;;;4989022;28;20215;-70
2021/12/26 05:49:16;;;;;;;12.27;6.73;;;2.60;99.90;;;;;;4990095;28;20704;-69
2021/12/26 05:51:42;;;;;;;12.33;6.50;;;2.60;99.90;;;;;;4984582;28;20592;-72
2021/12/26 05:54:09;;;;;;;10.43;6.13;;;2.70;99.90;;;;;;4987762;28;20220;-70
2021/12/26 05:56:37;;;;;;;10.60;5.97;;;2.70;99.90;;;;;;4990725;28;20214;-69
2021/12/26 05:59:04;;;;;;;11.97;6.57;;;2.70;99.90;;;;;;4991195;28;20208;-69
2021/12/26 06:01:30;;;;;;;10.07;6.33;;;2.70;99.90;;;;;;4989468;28;20203;-69
2021/12/26 06:03:57;;;;;;;12.27;6.07;;;2.70;99.90;;;;;;4991161;28;20712;-70
2021/12/26 06:06:24;;;;;;;13.13;7.10;;;2.70;99.90;;;;;;4990171;28;20197;-70
2021/12/26 06:08:51;;;;;;;12.07;6.40;;;2.70;99.90;;;;;;4985562;28;20202;-69
2021/12/26 06:11:17;;;;;;;11.87;6.40;;;2.70;99.90;;;;;;4989538;28;20199;-69
2021/12/26 06:13:44;;;;;;;10.83;6.07;;;2.70;99.90;;;;;;4988719;28;20228;-72
2021/12/26 06:16:11;;;;;;;11.00;6.60;;;2.70;99.90;;;;;;4988830;28;20230;-69
2021/12/26 06:18:38;;;;;;;13.10;6.57;;;2.70;99.90;;;;;;4986701;28;20201;-73
2021/12/26 06:21:04;;;;;;;13.67;7.33;;;2.70;99.90;;;;;;4986825;28;20200;-69
2021/12/26 06:23:31;;;;;;;11.47;6.20;;;2.60;99.90;;;;;;4989340;28;20218;-70
2021/12/26 06:25:58;;;;;;;11.73;6.87;;;2.60;99.90;;;;;;4990979;28;20216;-69
2021/12/26 06:28:24;;;;;;;11.47;5.90;;;2.60;99.90;;;;;;4989732;28;20211;-69
2021/12/26 06:30:51;;;;;;;11.20;6.33;;;2.70;99.90;;;;;;4990301;28;20216;-69
2021/12/26 06:33:18;;;;;;;13.10;7.37;;;2.70;99.90;;;;;;4992138;28;20243;-70
2021/12/26 06:35:45;;;;;;;10.80;6.70;;;2.70;99.90;;;;;;4988181;28;20266;-72
2021/12/26 06:38:11;;;;;;;12.30;6.97;;;2.60;99.90;;;;;;4991743;28;20195;-70
2021/12/26 06:40:38;;;;;;;11.50;6.93;;;2.70;99.90;;;;;;4987251;28;20205;-73
2021/12/26 06:43:06;;;;;;;12.60;7.00;;;2.60;99.90;;;;;;4987161;28;20428;-72
2021/12/26 06:45:33;;;;;;;12.70;7.20;;;2.70;99.90;;;;;;4984617;28;20231;-70
2021/12/26 06:48:02;;;;;;;11.70;6.77;;;2.60;99.90;;;;;;4987209;28;20251;-69
2021/12/26 06:50:29;;;;;;;14.10;6.77;;;2.70;99.90;;;;;;4989159;28;20238;-70
2021/12/26 06:52:56;;;;;;;10.97;6.30;;;2.70;99.90;;;;;;4989992;28;20200;-70
2021/12/26 06:55:22;;;;;;;15.30;7.10;;;2.70;99.90;;;;;;4990640;28;20217;-70
2021/12/26 06:57:52;;;;;;;14.53;7.60;;;2.70;99.90;;;;;;4988832;28;20219;-69
2021/12/26 07:00:19;;;;;;;12.33;7.23;;;2.60;99.90;;;;;;4989435;28;20201;-68
2021/12/26 07:02:46;;;;;;;13.17;6.77;;;2.60;99.90;;;;;;4985579;28;20209;-72
2021/12/26 07:05:14;;;;;;;14.87;7.37;;;2.60;99.90;;;;;;4985981;28;20219;-69
2021/12/26 07:07:44;;;;;;;12.93;6.97;;;2.50;99.90;;;;;;4986307;28;20207;-69
2021/12/26 07:10:11;;;;;;;13.97;7.23;;;2.60;99.90;;;;;;4985024;28;20224;-69
2021/12/26 07:12:38;;;;;;;14.10;7.30;;;2.50;99.90;;;;;;4987355;28;20200;-71
2021/12/26 07:15:05;;;;;;;14.83;7.50;;;2.50;99.90;;;;;;4989089;28;20223;-69
2021/12/26 07:17:32;;;;;;;13.27;7.30;;;2.60;99.90;;;;;;4985922;28;20200;-70
2021/12/26 07:20:00;;;;;;;12.90;6.97;;;2.50;99.90;;;;;;4987629;28;20232;-69
2021/12/26 07:22:27;;;;;;;13.23;6.53;;;2.50;99.90;;;;;;4985217;28;20211;-70
2021/12/26 07:24:53;;;;;;;14.20;7.33;;;2.60;99.90;;;;;;4987030;28;20407;-70
2021/12/26 07:27:20;;;;;;;14.37;7.10;;;2.60;99.90;;;;;;4989575;28;20709;-69
2021/12/26 07:29:46;;;;;;;12.40;6.87;;;2.60;99.90;;;;;;4988245;28;20220;-70
2021/12/26 07:32:13;;;;;;;14.27;7.53;;;2.70;99.90;;;;;;4987759;28;20477;-71
2021/12/26 07:34:40;;;;;;;13.77;7.60;;;2.70;99.90;;;;;;4990344;28;20216;-71
2021/12/26 07:37:08;;;;;;;15.07;7.50;;;2.60;99.90;;;;;;4982454;28;20220;-69
2021/12/26 07:39:35;;;;;;;13.90;7.37;;;2.60;99.90;;;;;;4989176;28;20200;-71
2021/12/26 07:42:03;;;;;;;14.20;7.40;;;2.60;99.90;;;;;;4978898;28;20205;-68
2021/12/26 07:44:30;;;;;;;13.43;7.40;;;2.60;99.90;;;;;;5000083;28;20708;-69
2021/12/26 07:46:56;;;;;;;14.43;6.77;;;2.70;99.90;;;;;;4986405;28;20467;-71
2021/12/26 07:49:23;;;;;;;13.50;7.30;;;2.80;99.90;;;;;;4984448;28;20200;-69
2021/12/26 07:51:51;;;;;;;12.83;7.00;;;2.80;99.90;;;;;;4986254;28;21488;-69
2021/12/26 07:54:19;;;;;;;14.10;7.17;;;2.90;99.90;;;;;;4987931;28;20271;-69
2021/12/26 07:56:46;;;;;;;13.23;6.73;;;2.90;99.90;;;;;;4987127;28;20208;-69
2021/12/26 07:59:13;;;;;;;11.77;7.00;;;2.80;99.90;;;;;;4989410;28;20204;-68
2021/12/26 08:01:40;;;;;;;13.83;7.23;;;2.70;99.90;;;;;;4987156;28;20702;-70
2021/12/26 08:04:12;;;;;;;14.27;7.00;;;2.70;99.90;;;;;;4986264;28;20307;-69
2021/12/26 08:06:40;;;;;;;13.03;7.00;;;2.70;99.90;;;;;;4981742;28;20200;-71
2021/12/26 08:09:08;;;;;;;14.97;7.70;;;2.80;99.90;;;;;;4988332;28;20214;-71
2021/12/26 08:11:35;;;;;;;13.70;7.30;;;2.70;99.90;;;;;;4986730;28;20231;-69
2021/12/26 08:14:02;;;;;;;13.97;7.70;;;2.70;99.90;;;;;;4985258;28;20681;-69
2021/12/26 08:16:28;;;;;;;16.33;7.63;;;2.60;99.90;;;;;;4979779;28;20197;-69
2021/12/26 08:18:55;;;;;;;13.90;7.57;;;2.60;99.90;;;;;;4986282;28;20210;-69
2021/12/26 08:21:22;;;;;;;15.13;7.80;;;2.70;99.90;;;;;;4985011;28;20945;-67
2021/12/26 08:23:49;;;;;;;13.27;7.20;;;2.70;99.90;;;;;;4978898;28;20708;-70
2021/12/26 08:26:16;;;;;;;12.63;7.00;;;2.90;99.90;;;;;;4985040;28;20680;-72
2021/12/26 08:28:43;;;;;;;17.13;7.40;;;2.80;99.90;;;;;;4986439;28;20212;-69
2021/12/26 08:31:10;;;;;;;12.23;6.97;;;2.80;99.90;;;;;;4985749;28;20247;-69
2021/12/26 08:33:37;;;;;;;15.03;7.80;;;2.80;99.90;;;;;;4982972;28;20220;-69
2021/12/26 08:36:05;;;;;;;14.80;7.63;;;2.80;99.90;;;;;;4987210;28;20188;-71
2021/12/26 08:38:32;;;;;;;15.70;7.63;;;2.80;99.90;;;;;;4990216;28;20193;-69
2021/12/26 08:40:59;;;;;;;14.63;7.30;;;2.90;99.90;;;;;;4986493;28;20653;-70
2021/12/26 08:43:26;;;;;;;14.97;7.70;;;2.90;99.90;;;;;;4978742;28;20213;-70
2021/12/26 08:45:52;;;;;;;15.47;7.20;;;2.90;99.90;;;;;;4984672;28;20696;-73
2021/12/26 08:48:20;;;;;;;12.53;7.30;;;2.90;99.90;;;;;;4990954;28;20292;-67
2021/12/26 08:50:47;;;;;;;13.17;7.03;;;2.80;99.90;;;;;;4990804;28;20229;-68
2021/12/26 08:53:14;;;;;;;14.67;7.83;;;2.80;99.90;;;;;;4990282;28;20213;-70
2021/12/26 08:55:42;;;;;;;13.60;7.67;;;2.70;99.90;;;;;;4990598;28;20619;-68
2021/12/26 08:58:08;;;;;;;13.47;6.83;;;2.70;99.90;;;;;;4992659;28;20201;-68
2021/12/26 09:00:36;;;;;;;13.83;7.27;;;2.80;99.90;;;;;;4991547;28;20208;-67
2021/12/26 09:03:03;;;;;;;15.00;6.90;;;2.80;99.90;;;;;;4992236;28;20200;-68
2021/12/26 09:05:30;;;;;;;13.97;7.07;;;2.80;99.90;;;;;;4986218;28;20255;-71
2021/12/26 09:07:57;;;;;;;14.30;7.27;;;2.80;99.90;;;;;;4990788;28;20254;-70
2021/12/26 09:10:24;;;;;;;14.63;7.27;;;2.90;99.90;;;;;;4990141;28;20235;-68
2021/12/26 09:12:51;;;;;;;13.47;6.87;;;2.90;99.90;;;;;;4987923;28;20629;-71
2021/12/26 09:15:19;;;;;;;12.20;7.07;;;2.90;99.90;;;;;;4993201;28;20580;-69
2021/12/26 09:17:47;;;;;;;13.77;7.57;;;3.00;99.90;;;;;;4993676;28;20200;-68
2021/12/26 09:20:18;;;;;;;14.43;6.63;;;3.10;99.90;;;;;;4983043;28;20208;-69
2021/12/26 09:22:45;;;;;;;16.30;7.53;;;3.00;99.90;;;;;;4987055;28;20215;-69
2021/12/26 09:25:12;;;;;;;14.97;7.77;;;2.90;99.90;;;;;;4989142;28;20234;-71
2021/12/26 09:27:38;;;;;;;12.50;6.83;;;2.90;99.90;;;;;;4990634;28;20212;-69
2021/12/26 09:30:06;;;;;;;14.40;7.77;;;2.90;99.90;;;;;;4992065;28;20695;-71
2021/12/26 09:32:34;;;;;;;12.63;7.00;;;2.90;99.90;;;;;;4991188;28;20204;-69
2021/12/26 09:35:01;;;;;;;14.37;7.70;;;3.00;99.90;;;;;;4980712;28;20275;-69
2021/12/26 09:37:28;;;;;;;15.83;7.80;;;3.10;99.90;;;;;;4984670;28;20198;-69
2021/12/26 09:39:54;;;;;;;12.63;7.10;;;3.10;99.90;;;;;;4979458;28;20204;-72
2021/12/26 09:42:24;;;;;;;13.20;7.47;;;3.20;99.90;;;;;;4990104;28;20473;-69
2021/12/26 09:44:51;;;;;;;14.80;7.97;;;3.20;99.90;;;;;;4990936;28;20216;-70
2021/12/26 09:47:18;;;;;;;13.87;7.33;;;3.30;99.90;;;;;;4988345;28;20449;-72
2021/12/26 09:49:45;;;;;;;12.47;7.27;;;3.30;99.90;;;;;;4990982;28;20661;-72
2021/12/26 09:52:12;;;;;;;14.37;7.40;;;3.40;99.90;;;;;;4988066;28;20197;-70
2021/12/26 09:54:39;;;;;;;12.70;6.73;;;3.40;99.90;;;;;;4987618;28;20318;-70
2021/12/26 09:57:06;;;;;;;13.33;7.10;;;3.30;99.90;;;;;;4982016;28;20545;-70
2021/12/26 09:59:33;;;;;;;12.83;6.70;;;3.30;99.90;;;;;;4983384;28;20212;-71
2021/12/26 10:02:09;;;;;;;15.67;7.43;;;3.40;99.90;;;;;;4986842;28;20197;-71
2021/12/26 10:04:47;;;;;;;13.90;7.07;;;3.40;99.90;;;;;;4989240;28;20216;-71
2021/12/26 10:07:17;;;;;;;14.03;7.10;;;3.30;99.90;;;;;;4986699;28;20204;-70
2021/12/26 10:09:46;;;;;;;15.70;7.50;;;3.30;99.90;;;;;;4991394;28;20200;-70
2021/12/26 10:12:15;;;;;;;16.67;7.73;;;3.20;99.90;;;;;;4987259;28;20219;-71
2021/12/26 10:14:46;;;;;;;16.30;8.03;;;3.20;99.90;;;;;;4987134;28;20723;-70
2021/12/26 10:17:19;;;;;;;14.87;7.67;;;3.20;99.90;;;;;;4990731;28;20197;-72
2021/12/26 10:19:47;;;;;;;14.33;7.67;;;3.20;99.90;;;;;;4987564;28;20670;-69
2021/12/26 10:22:17;;;;;;;15.60;8.20;;;3.20;99.90;;;;;;4982622;28;20212;-70
2021/12/26 10:24:48;;;;;;;14.07;7.47;;;3.20;99.90;;;;;;4989014;28;20673;-69
2021/12/26 10:27:31;;;;;;;15.17;7.77;;;3.20;99.90;;;;;;4988091;28;20696;-69
2021/12/26 10:30:01;;;;;;;18.40;8.20;;;3.10;99.90;;;;;;4983702;28;20215;-69
2021/12/26 10:32:38;;;;;;;18.60;8.33;;;3.00;99.90;;;;;;4989255;28;20201;-71
2021/12/26 10:35:09;;;;;;;17.93;8.17;;;3.10;99.90;;;;;;4990983;28;20222;-72
2021/12/26 10:37:51;;;;;;;15.87;8.47;;;2.90;99.90;;;;;;4984038;28;20263;-72
2021/12/26 10:40:22;;;;;;;16.27;8.40;;;3.00;99.90;;;;;;4983867;28;20235;-71
2021/12/26 10:42:51;;;;;;;14.60;7.87;;;3.10;99.90;;;;;;4989058;28;20192;-70
2021/12/26 10:45:25;;;;;;;16.33;8.43;;;3.10;99.90;;;;;;4988583;28;20212;-70
2021/12/26 10:47:57;;;;;;;20.10;8.57;;;3.10;99.90;;;;;;4987046;28;20216;-69
2021/12/26 10:50:26;;;;;;;16.17;8.50;;;3.10;99.90;;;;;;4990057;28;20224;-71
2021/12/26 10:53:08;;;;;;;14.80;8.23;;;3.20;99.90;;;;;;4986608;28;20197;-69
2021/12/26 10:55:46;;;;;;;16.40;8.10;;;3.20;99.90;;;;;;4984752;28;20197;-69
2021/12/26 10:58:18;;;;;;;15.23;8.37;;;3.20;99.90;;;;;;4990456;28;20208;-69
2021/12/26 11:00:51;;;;;;;16.30;7.93;;;3.20;99.90;;;;;;4986994;28;20707;-69
2021/12/26 11:03:22;;;;;;;17.53;8.30;;;3.20;99.90;;;;;;4987762;28;20204;-72
2021/12/26 11:05:52;;;;;;;16.73;8.70;;;3.20;99.90;;;;;;4988530;28;20680;-69
2021/12/26 11:08:29;;;;;;;16.73;7.63;;;3.20;99.90;;;;;;4986355;28;20209;-69
2021/12/26 11:10:58;;;;;;;18.87;8.70;;;3.30;99.90;;;;;;4985726;28;20314;-69
2021/12/26 11:13:30;;;;;;;16.17;8.50;;;3.40;99.90;;;;;;4987786;28;20862;-69
2021/12/26 11:16:04;;;;;;;17.60;8.40;;;3.40;99.90;;;;;;4986636;28;20208;-70
2021/12/26 11:18:31;;;;;;;16.20;8.03;;;3.30;99.90;;;;;;4988744;28;20192;-71
2021/12/26 11:21:03;;;;;;;16.07;7.90;;;3.30;99.90;;;;;;4987854;28;20699;-69
2021/12/26 11:23:33;;;;;;;16.77;8.50;;;3.20;99.90;;;;;;4983914;28;20653;-69
2021/12/26 11:26:01;;;;;;;16.00;8.37;;;3.30;99.90;;;;;;4986549;28;20194;-72
2021/12/26 11:28:31;;;;;;;19.07;8.80;;;3.30;99.90;;;;;;4996767;28;20610;-69
2021/12/26 11:31:04;;;;;;;15.33;8.13;;;3.30;99.90;;;;;;4978741;28;20626;-69
2021/12/26 11:33:32;;;;;;;16.57;7.87;;;3.30;99.90;;;;;;4988468;28;20255;-72
2021/12/26 11:36:00;;;;;;;16.90;8.33;;;3.20;99.90;;;;;;4986360;28;20204;-72
2021/12/26 11:38:28;;;;;;;15.97;8.50;;;3.20;99.90;;;;;;4987903;28;20197;-69
2021/12/26 11:40:59;;;;;;;15.83;8.97;;;3.20;99.90;;;;;;4986934;28;20588;-69
2021/12/26 11:43:44;;;;;;;16.20;8.10;;;3.40;99.90;;;;;;4982788;28;20225;-69
2021/12/26 11:46:58;;;;;;;16.37;7.53;;;3.50;99.90;;;;;;4982274;28;20204;-72
2021/12/26 11:49:50;;;;;;;16.33;8.70;;;3.50;99.90;;;;;;4974599;28;20200;-69
2021/12/26 11:52:29;;;;;;;17.27;8.40;;;3.40;99.90;;;;;;4983746;28;20817;-71
2021/12/26 11:55:02;;;;;;;17.77;8.77;;;3.30;99.90;;;;;;4990476;28;20248;-71
2021/12/26 11:57:59;;;;;;;21.47;9.20;;;3.40;99.90;;;;;;4982081;28;20188;-69
2021/12/26 12:00:41;;;;;;;18.90;8.53;;;3.40;99.90;;;;;;4980784;28;20622;-71
2021/12/26 12:03:20;;;;;;;17.40;8.63;;;3.40;99.90;;;;;;4982626;28;20668;-72
2021/12/26 12:05:48;;;;;;;22.03;9.53;;;3.40;99.90;;;;;;4978607;28;20204;-71
2021/12/26 12:08:24;;;;;;;19.70;9.03;;;3.40;99.90;;;;;;4984408;28;20225;-70
2021/12/26 12:10:57;;;;;;;14.57;8.20;;;3.50;99.90;;;;;;4981921;28;20208;-71
2021/12/26 12:13:27;;;;;;;18.20;8.90;;;3.50;99.90;;;;;;4981766;28;20213;-70
2021/12/26 12:15:57;;;;;;;19.43;9.57;;;3.50;99.90;;;;;;4986503;28;20196;-70
2021/12/26 12:18:54;;;;;;;17.17;8.00;;;3.30;99.90;;;;;;4982972;28;20235;-70
2021/12/26 12:21:32;;;;;;;15.50;8.47;;;3.40;99.90;;;;;;4983816;28;20216;-72
2021/12/26 12:24:00;;;;;;;16.40;8.67;;;3.40;99.90;;;;;;4982921;28;20669;-68
2021/12/26 12:26:42;;;;;;;20.13;9.37;;;3.40;99.90;;;;;;4987088;28;20623;-68
2021/12/26 12:29:11;;;;;;;16.23;7.93;;;3.40;99.90;;;;;;4990428;28;20196;-69
2021/12/26 12:31:37;;;;;;;15.60;8.70;;;3.40;99.90;;;;;;4989083;28;20216;-68
2021/12/26 12:34:07;;;;;;;20.43;9.03;;;3.40;99.90;;;;;;4986535;28;20219;-68
2021/12/26 12:36:39;;;;;;;15.97;8.50;;;3.40;99.90;;;;;;4984968;28;20204;-69
2021/12/26 12:39:23;;;;;;;16.67;8.70;;;3.40;99.90;;;;;;4984249;28;20217;-70
2021/12/26 12:41:58;;;;;;;20.03;8.47;;;3.50;99.90;;;;;;4989379;28;20714;-66
2021/12/26 12:44:31;;;;;;;20.43;8.07;;;3.50;99.90;;;;;;4988775;28;20227;-69
2021/12/26 12:47:13;;;;;;;18.20;8.80;;;3.50;99.90;;;;;;5004374;28;20703;-72
2021/12/26 12:49:54;;;;;;;18.43;8.63;;;3.60;99.90;;;;;;4989732;28;20208;-67
2021/12/26 12:52:43;;;;;;;18.93;9.03;;;3.60;99.90;;;;;;4987735;28;20216;-66
2021/12/26 12:55:09;;;;;;;15.03;7.53;;;3.70;99.90;;;;;;4982070;28;20213;-70
2021/12/26 12:57:40;;;;;;;21.10;8.97;;;3.70;99.90;;;;;;4989030;28;20205;-68
2021/12/26 13:00:24;;;;;;;19.00;9.10;;;3.70;99.90;;;;;;4986871;28;20189;-68
2021/12/26 13:02:53;;;;;;;16.43;8.63;;;3.80;99.90;;;;;;4988083;28;20204;-67
2021/12/26 13:05:31;;;;;;;16.47;8.80;;;3.80;99.90;;;;;;4986331;28;20216;-68
2021/12/26 13:07:59;;;;;;;18.37;8.13;;;3.90;99.90;;;;;;4987906;28;20262;-68